createdAt,value
2023-05-06T00:00:31.737Z,6.38
2023-05-06T00:03:34.939Z,6.72
2023-05-06T00:06:37.686Z,6.70
2023-05-06T00:09:39.883Z,8.18
2023-05-06T00:12:42.240Z,7.07
2023-05-06T00:15:44.661Z,6.25
2023-05-06T00:18:46.940Z,6.78
2023-05-06T00:21:49.251Z,7.70
2023-05-06T00:24:51.702Z,6.03
2023-05-06T00:27:54.452Z,7.38
2023-05-06T00:30:56.767Z,7.43
2023-05-06T00:33:59.057Z,7.18
2023-05-06T00:37:01.419Z,6.68
2023-05-06T00:40:04.400Z,6.35
2023-05-06T00:43:07.498Z,6.38
2023-05-06T00:46:11.757Z,7.03
2023-05-06T00:49:14.182Z,7.07
2023-05-06T00:52:17.767Z,7.45
2023-05-06T00:55:21.577Z,7.50
2023-05-06T00:58:23.901Z,6.15
2023-05-06T01:01:27.410Z,7.93
2023-05-06T01:04:30.912Z,6.50
2023-05-06T01:07:35.948Z,7.75
2023-05-06T01:11:21.765Z,6.25
2023-05-06T01:14:49.878Z,6.90
2023-05-06T01:17:54.832Z,6.53
2023-05-06T01:20:57.777Z,7.82
2023-05-06T01:24:02.801Z,5.90
2023-05-06T01:27:05.249Z,8.68
2023-05-06T01:30:08.522Z,7.85
2023-05-06T01:33:45.367Z,7.55
2023-05-06T01:37:18.272Z,7.95
2023-05-06T01:40:25.326Z,8.13
2023-05-06T01:43:30.309Z,8.48
2023-05-06T01:46:33.557Z,7.32
2023-05-06T01:49:36.275Z,7.70
2023-05-06T01:52:38.604Z,7.72
2023-05-06T01:55:41.630Z,7.93
2023-05-06T01:58:44.015Z,8.82
2023-05-06T02:01:46.413Z,7.20
2023-05-06T02:04:48.946Z,7.32
2023-05-06T02:07:51.499Z,8.50
2023-05-06T02:10:54.324Z,7.53
2023-05-06T02:13:58.532Z,7.22
2023-05-06T02:17:05.196Z,8.77
2023-05-06T02:20:10.100Z,9.35
2023-05-06T02:23:12.409Z,7.40
2023-05-06T02:26:15.111Z,7.20
2023-05-06T02:29:17.353Z,9.70
2023-05-06T02:32:19.611Z,7.80
2023-05-06T02:35:21.982Z,8.80
2023-05-06T02:38:26.013Z,8.25
2023-05-06T02:41:28.945Z,7.00
2023-05-06T02:44:31.273Z,7.75
2023-05-06T02:47:34.185Z,9.18
2023-05-06T02:50:36.459Z,8.60
2023-05-06T02:53:38.971Z,9.32
2023-05-06T02:56:43.467Z,6.80
2023-05-06T02:59:45.972Z,7.60
2023-05-06T03:02:48.409Z,7.75
2023-05-06T03:05:50.819Z,7.25
2023-05-06T03:08:53.232Z,9.68
2023-05-06T03:11:57.459Z,9.30
2023-05-06T03:15:00.207Z,9.20
2023-05-06T03:18:03.953Z,9.88
2023-05-06T03:21:06.421Z,8.35
2023-05-06T03:24:11.849Z,8.45
2023-05-06T03:27:14.796Z,8.38
2023-05-06T03:30:19.053Z,8.05
2023-05-06T03:33:23.486Z,8.23
2023-05-06T03:36:25.926Z,9.57
2023-05-06T03:39:29.544Z,8.77
2023-05-06T03:42:32.689Z,8.40
2023-05-06T03:45:36.205Z,7.28
2023-05-06T03:48:40.002Z,9.18
2023-05-06T03:51:46.683Z,9.18
2023-05-06T03:54:49.887Z,8.98
2023-05-06T03:57:52.192Z,9.20
2023-05-06T04:00:56.154Z,8.13
2023-05-06T04:03:58.603Z,9.50
2023-05-06T04:07:03.987Z,9.70
2023-05-06T04:10:07.473Z,10.20
2023-05-06T04:13:10.082Z,10.07
2023-05-06T04:16:17.265Z,9.00
2023-05-06T04:19:21.266Z,10.05
2023-05-06T04:22:24.030Z,8.38
2023-05-06T04:25:28.195Z,8.80
2023-05-06T04:28:30.813Z,8.15
2023-05-06T04:31:35.322Z,9.60
2023-05-06T04:34:41.785Z,9.20
2023-05-06T04:37:46.763Z,10.40
2023-05-06T04:40:55.694Z,9.02
2023-05-06T04:43:58.168Z,8.93
2023-05-06T04:47:00.628Z,8.95
2023-05-06T04:50:04.671Z,9.13
2023-05-06T04:53:07.109Z,8.77
2023-05-06T04:56:09.641Z,10.05
2023-05-06T04:59:12.394Z,8.10
2023-05-06T05:02:16.255Z,9.30
2023-05-06T05:05:19.938Z,8.90
2023-05-06T05:08:26.060Z,8.48
2023-05-06T05:11:28.496Z,8.00
2023-05-06T05:14:33.151Z,7.80
2023-05-06T05:17:35.970Z,9.05
2023-05-06T05:20:38.514Z,8.52
2023-05-06T05:23:44.008Z,9.73
2023-05-06T05:26:46.609Z,9.40
2023-05-06T05:29:50.750Z,8.75
2023-05-06T05:32:53.509Z,9.15
2023-05-06T05:35:55.960Z,8.30
2023-05-06T05:38:58.949Z,8.23
2023-05-06T05:42:03.956Z,11.88
2023-05-06T05:45:08.996Z,9.05
2023-05-06T05:48:11.781Z,8.52
2023-05-06T05:51:14.693Z,10.57
2023-05-06T05:54:18.224Z,8.10
2023-05-06T05:57:21.909Z,11.23
2023-05-06T06:00:25.160Z,8.23
2023-05-06T06:03:34.636Z,9.45
2023-05-06T06:06:56.438Z,11.10
2023-05-06T06:10:06.022Z,11.98
2023-05-06T06:13:08.655Z,11.88
2023-05-06T06:16:11.609Z,11.27
2023-05-06T06:19:17.056Z,8.07
2023-05-06T06:22:19.802Z,10.23
2023-05-06T06:25:22.657Z,10.15
2023-05-06T06:28:25.054Z,8.60
2023-05-06T06:31:29.509Z,11.77
2023-05-06T06:34:31.891Z,11.48
2023-05-06T06:37:34.364Z,10.95
2023-05-06T06:40:36.570Z,9.82
2023-05-06T06:43:39.036Z,10.45
2023-05-06T06:47:01.549Z,10.48
2023-05-06T06:50:04.220Z,11.07
2023-05-06T06:53:06.802Z,9.30
2023-05-06T06:56:12.240Z,10.80
2023-05-06T06:59:14.846Z,9.80
2023-05-06T07:02:17.235Z,8.55
2023-05-06T07:05:19.493Z,10.40
2023-05-06T07:08:22.554Z,9.60
2023-05-06T07:11:24.977Z,12.52
2023-05-06T07:14:27.596Z,9.10
2023-05-06T07:17:30.327Z,9.38
2023-05-06T07:20:32.625Z,10.65
2023-05-06T07:23:34.874Z,10.25
2023-05-06T07:26:37.626Z,8.88
2023-05-06T07:29:39.835Z,9.82
2023-05-06T07:32:42.302Z,9.52
2023-05-06T07:35:44.767Z,9.25
2023-05-06T07:38:47.312Z,9.48
2023-05-06T07:41:49.562Z,8.95
2023-05-06T07:44:52.132Z,8.32
2023-05-06T07:47:54.551Z,7.35
2023-05-06T07:50:57.050Z,9.43
2023-05-06T07:53:59.386Z,8.68
2023-05-06T07:57:02.618Z,8.00
2023-05-06T08:00:06.216Z,9.85
2023-05-06T08:03:16.953Z,8.75
2023-05-06T08:06:19.381Z,10.43
2023-05-06T08:09:22.901Z,9.13
2023-05-06T08:12:25.455Z,7.65
2023-05-06T08:15:27.719Z,8.85
2023-05-06T08:18:30.197Z,8.65
2023-05-06T08:21:32.561Z,9.30
2023-05-06T08:24:34.839Z,9.93
2023-05-06T08:27:37.145Z,9.00
2023-05-06T08:30:39.622Z,9.15
2023-05-06T08:33:41.887Z,8.80
2023-05-06T08:36:44.235Z,8.98
2023-05-06T08:39:46.615Z,9.18
2023-05-06T08:42:50.502Z,13.10
2023-05-06T08:45:52.884Z,14.27
2023-05-06T08:48:55.145Z,11.48
2023-05-06T08:51:58.300Z,10.50
2023-05-06T08:55:05.152Z,9.75
2023-05-06T08:58:08.325Z,10.43
2023-05-06T09:01:11.084Z,10.63
2023-05-06T09:04:13.898Z,11.23
2023-05-06T09:07:16.164Z,8.20
2023-05-06T09:10:19.240Z,9.95
2023-05-06T09:13:21.869Z,8.50
2023-05-06T09:16:31.029Z,11.63
2023-05-06T09:19:38.648Z,8.47
2023-05-06T09:22:41.591Z,10.13
2023-05-06T09:25:46.357Z,7.10
2023-05-06T09:28:48.808Z,9.18
2023-05-06T09:31:53.769Z,8.65
2023-05-06T09:34:56.747Z,7.68
2023-05-06T09:37:59.104Z,8.23
2023-05-06T09:41:03.976Z,9.45
2023-05-06T09:44:06.432Z,11.45
2023-05-06T09:47:09.298Z,7.80
2023-05-06T09:50:14.126Z,6.38
2023-05-06T09:53:18.408Z,7.53
2023-05-06T09:56:22.414Z,8.10
2023-05-06T09:59:27.382Z,7.32
2023-05-06T10:02:30.957Z,7.97
2023-05-06T10:05:36.605Z,8.23
2023-05-06T10:08:41.226Z,6.90
2023-05-06T10:11:45.792Z,9.05
2023-05-06T10:14:48.319Z,8.07
2023-05-06T10:17:53.308Z,10.13
2023-05-06T10:20:56.513Z,7.90
2023-05-06T10:24:07.436Z,8.38
2023-05-06T10:27:12.494Z,10.35
2023-05-06T10:30:18.784Z,8.63
2023-05-06T10:33:23.620Z,11.20
2023-05-06T10:36:28.627Z,7.78
2023-05-06T10:39:31.087Z,6.93
2023-05-06T10:42:36.490Z,9.35
2023-05-06T10:46:10.944Z,7.65
2023-05-06T10:49:17.065Z,8.98
2023-05-06T10:52:22.420Z,9.23
2023-05-06T10:55:30.819Z,9.43
2023-05-06T10:58:36.476Z,7.75
2023-05-06T11:01:44.104Z,8.98
2023-05-06T11:04:52.899Z,9.23
2023-05-06T11:08:11.342Z,8.55
2023-05-06T11:11:52.051Z,6.88
2023-05-06T11:14:54.387Z,8.98
2023-05-06T11:17:57.351Z,10.15
2023-05-06T11:21:02.962Z,13.38
2023-05-06T11:24:05.420Z,8.75
2023-05-06T11:27:09.463Z,9.48
2023-05-06T11:30:15.209Z,9.85
2023-05-06T11:33:22.359Z,8.20
2023-05-06T11:36:24.747Z,10.70
2023-05-06T11:39:36.718Z,9.07
2023-05-06T11:42:42.653Z,8.40
2023-05-06T11:45:46.776Z,9.20
2023-05-06T11:48:49.530Z,8.63
2023-05-06T11:51:51.850Z,8.77
2023-05-06T11:54:54.745Z,8.98
2023-05-06T11:57:57.201Z,9.85
2023-05-06T12:01:01.500Z,9.52
2023-05-06T12:04:04.095Z,9.13
2023-05-06T12:07:07.943Z,9.88
2023-05-06T12:10:10.824Z,9.52
2023-05-06T12:13:15.246Z,9.77
2023-05-06T12:16:18.085Z,9.75
2023-05-06T12:19:22.202Z,10.68
2023-05-06T12:22:25.033Z,10.05
2023-05-06T12:25:27.405Z,8.85
2023-05-06T12:28:31.096Z,9.82
2023-05-06T12:31:33.513Z,8.93
2023-05-06T12:34:42.063Z,10.80
2023-05-06T12:37:44.345Z,9.32
2023-05-06T12:40:54.649Z,8.77
2023-05-06T12:43:56.942Z,9.38
2023-05-06T12:47:04.569Z,9.75
2023-05-06T12:50:07.086Z,9.60
2023-05-06T12:53:11.512Z,9.57
2023-05-06T12:56:14.072Z,11.18
2023-05-06T12:59:16.346Z,9.90
2023-05-06T13:02:18.866Z,9.63
2023-05-06T13:05:21.413Z,11.35
2023-05-06T13:08:23.583Z,10.43
2023-05-06T13:11:26.192Z,10.88
2023-05-06T13:14:28.516Z,9.10
2023-05-06T13:17:31.023Z,9.57
2023-05-06T13:20:33.385Z,10.77
2023-05-06T13:23:37.026Z,9.45
2023-05-06T13:26:39.230Z,11.88
2023-05-06T13:29:41.501Z,9.10
2023-05-06T13:32:43.782Z,10.73
2023-05-06T13:35:46.132Z,9.02
2023-05-06T13:38:48.505Z,10.00
2023-05-06T13:41:51.312Z,10.35
2023-05-06T13:44:55.114Z,10.18
2023-05-06T13:47:57.390Z,9.13
2023-05-06T13:50:59.752Z,9.48
2023-05-06T13:54:02.821Z,9.45
2023-05-06T13:57:05.092Z,8.73
2023-05-06T14:00:10.490Z,10.45
2023-05-06T14:03:12.870Z,8.07
2023-05-06T14:06:15.227Z,7.82
2023-05-06T14:09:18.257Z,9.30
2023-05-06T14:12:21.897Z,8.13
2023-05-06T14:15:24.623Z,9.02
2023-05-06T14:18:27.907Z,7.55
2023-05-06T14:21:30.236Z,7.28
2023-05-06T14:24:32.525Z,9.85
2023-05-06T14:27:34.778Z,10.73
2023-05-06T14:30:40.232Z,8.52
2023-05-06T14:33:42.515Z,8.18
2023-05-06T14:36:45.075Z,8.38
2023-05-06T14:39:47.514Z,7.80
2023-05-06T14:42:50.302Z,7.68
2023-05-06T14:45:52.617Z,8.05
2023-05-06T14:48:54.996Z,7.82
2023-05-06T14:51:57.784Z,8.25
2023-05-06T14:55:02.382Z,8.48
2023-05-06T14:58:04.809Z,7.07
2023-05-06T15:01:07.309Z,7.45
2023-05-06T15:04:12.583Z,7.65
2023-05-06T15:07:14.878Z,7.57
2023-05-06T15:10:17.217Z,8.43
2023-05-06T15:13:19.556Z,7.85
2023-05-06T15:16:22.567Z,8.20
2023-05-06T15:19:25.013Z,8.55
2023-05-06T15:22:27.418Z,7.82
2023-05-06T15:25:35.508Z,7.30
2023-05-06T15:28:38.628Z,8.82
2023-05-06T15:31:43.852Z,7.88
2023-05-06T15:34:46.251Z,8.57
2023-05-06T15:37:48.529Z,8.02
2023-05-06T15:40:52.048Z,8.65
2023-05-06T15:43:56.387Z,8.10
2023-05-06T15:46:58.760Z,7.97
2023-05-06T15:50:01.613Z,8.63
2023-05-06T15:53:04.277Z,7.78
2023-05-06T15:56:18.004Z,7.60
2023-05-06T15:59:21.154Z,8.23
2023-05-06T16:02:27.360Z,7.90
2023-05-06T16:05:29.849Z,7.90
2023-05-06T16:08:32.164Z,9.05
2023-05-06T16:11:34.694Z,8.48
2023-05-06T16:14:37.083Z,8.00
2023-05-06T16:17:39.487Z,7.30
2023-05-06T16:20:41.821Z,8.60
2023-05-06T16:23:44.048Z,8.15
2023-05-06T16:26:46.265Z,7.50
2023-05-06T16:29:48.588Z,8.00
2023-05-06T16:32:50.815Z,8.05
2023-05-06T16:35:53.180Z,8.73
2023-05-06T16:38:55.781Z,6.80
2023-05-06T16:41:58.112Z,7.20
2023-05-06T16:45:00.302Z,8.75
2023-05-06T16:48:02.564Z,6.90
2023-05-06T16:51:05.072Z,6.90
2023-05-06T16:54:07.313Z,8.43
2023-05-06T16:57:09.579Z,7.53
2023-05-06T17:00:12.581Z,7.78
2023-05-06T17:03:15.248Z,8.23
2023-05-06T17:06:17.814Z,7.68
2023-05-06T17:09:20.741Z,7.32
2023-05-06T17:12:24.132Z,6.32
2023-05-06T17:15:29.299Z,8.63
2023-05-06T17:18:31.590Z,9.05
2023-05-06T17:21:33.849Z,8.07
2023-05-06T17:24:36.149Z,7.45
2023-05-06T17:27:39.090Z,8.48
2023-05-06T17:30:41.652Z,7.50
2023-05-06T17:33:47.505Z,8.95
2023-05-06T17:36:49.926Z,8.02
2023-05-06T17:39:52.589Z,8.32
2023-05-06T17:42:54.863Z,8.15
2023-05-06T17:45:57.306Z,8.52
2023-05-06T17:48:59.669Z,8.52
2023-05-06T17:52:02.096Z,7.65
2023-05-06T17:55:15.543Z,9.10
2023-05-06T17:58:19.540Z,10.05
2023-05-06T18:01:21.761Z,8.88
2023-05-06T18:04:24.096Z,10.45
2023-05-06T18:07:26.296Z,8.45
2023-05-06T18:10:28.591Z,11.55
2023-05-06T18:13:35.358Z,8.77
2023-05-06T18:16:37.905Z,8.52
2023-05-06T18:19:40.275Z,11.35
2023-05-06T18:22:43.138Z,8.63
2023-05-06T18:25:45.690Z,10.05
2023-05-06T18:28:48.072Z,9.88
2023-05-06T18:31:50.363Z,9.85
2023-05-06T18:34:52.723Z,11.32
2023-05-06T18:37:55.113Z,11.82
2023-05-06T18:40:57.323Z,10.90
2023-05-06T18:43:59.492Z,9.55
2023-05-06T18:47:02.320Z,10.05
2023-05-06T18:50:04.816Z,9.48
2023-05-06T18:53:07.118Z,9.50
2023-05-06T18:56:10.085Z,11.88
2023-05-06T18:59:13.537Z,12.13
2023-05-06T19:02:16.134Z,10.95
2023-05-06T19:05:19.392Z,10.05
2023-05-06T19:08:21.890Z,10.43
2023-05-06T19:11:24.819Z,10.57
2023-05-06T19:14:27.037Z,10.00
2023-05-06T19:17:29.388Z,11.02
2023-05-06T19:20:31.828Z,12.30
2023-05-06T19:23:34.161Z,11.60
2023-05-06T19:26:38.917Z,12.93
2023-05-06T19:29:41.187Z,11.73
2023-05-06T19:32:44.664Z,10.93
2023-05-06T19:35:47.025Z,16.73
2023-05-06T19:38:49.284Z,10.38
2023-05-06T19:41:52.583Z,11.82
2023-05-06T19:44:54.784Z,11.00
2023-05-06T19:47:57.926Z,10.68
2023-05-06T19:51:00.272Z,13.70
2023-05-06T19:54:02.559Z,11.57
2023-05-06T19:57:04.844Z,11.80
2023-05-06T20:00:10.394Z,11.25
2023-05-06T20:03:13.270Z,11.30
2023-05-06T20:06:15.700Z,12.88
2023-05-06T20:09:17.925Z,12.10
2023-05-06T20:12:20.214Z,11.73
2023-05-06T20:15:22.899Z,10.63
2023-05-06T20:18:25.641Z,12.43
2023-05-06T20:21:28.010Z,11.25
2023-05-06T20:24:30.456Z,12.27
2023-05-06T20:27:32.827Z,10.77
2023-05-06T20:30:35.364Z,11.60
2023-05-06T20:33:37.697Z,12.27
2023-05-06T20:36:40.556Z,12.68
2023-05-06T20:39:43.964Z,12.02
2023-05-06T20:42:46.731Z,11.57
2023-05-06T20:45:49.052Z,11.75
2023-05-06T20:48:52.081Z,12.35
2023-05-06T20:51:54.388Z,12.65
2023-05-06T20:54:57.021Z,11.80
2023-05-06T20:57:59.372Z,13.85
2023-05-06T21:01:03.447Z,11.23
2023-05-06T21:04:09.478Z,11.13
2023-05-06T21:07:11.737Z,11.35
2023-05-06T21:10:14.801Z,13.50
2023-05-06T21:13:17.208Z,11.48
2023-05-06T21:16:19.688Z,12.55
2023-05-06T21:19:21.980Z,11.38
2023-05-06T21:22:24.617Z,11.98
2023-05-06T21:25:27.048Z,12.13
2023-05-06T21:28:29.424Z,13.82
2023-05-06T21:31:31.813Z,14.30
2023-05-06T21:34:35.958Z,11.77
2023-05-06T21:37:38.244Z,12.10
2023-05-06T21:40:40.599Z,11.68
2023-05-06T21:43:43.297Z,11.20
2023-05-06T21:46:45.700Z,13.38
2023-05-06T21:49:48.036Z,11.88
2023-05-06T21:52:50.588Z,10.27
2023-05-06T21:55:52.809Z,11.20
2023-05-06T21:58:56.201Z,13.40
2023-05-06T22:01:58.470Z,11.30
2023-05-06T22:05:00.802Z,12.52
2023-05-06T22:08:03.083Z,12.15
2023-05-06T22:11:05.412Z,10.00
2023-05-06T22:14:07.775Z,12.05
2023-05-06T22:17:10.850Z,10.20
2023-05-06T22:20:13.899Z,9.48
2023-05-06T22:23:16.416Z,11.13
2023-05-06T22:26:18.630Z,10.07
2023-05-06T22:29:21.059Z,9.82
2023-05-06T22:32:23.303Z,9.75
2023-05-06T22:35:25.626Z,11.10
2023-05-06T22:38:27.841Z,10.32
2023-05-06T22:41:31.266Z,9.43
2023-05-06T22:44:33.650Z,9.48
2023-05-06T22:47:36.009Z,8.95
2023-05-06T22:50:38.775Z,8.77
2023-05-06T22:53:41.214Z,9.07
2023-05-06T22:56:43.641Z,8.50
2023-05-06T22:59:46.023Z,7.60
2023-05-06T23:02:48.399Z,10.13
2023-05-06T23:05:50.930Z,9.02
2023-05-06T23:08:53.367Z,8.50
2023-05-06T23:11:55.921Z,9.25
2023-05-06T23:14:58.480Z,8.27
2023-05-06T23:18:01.209Z,7.82
2023-05-06T23:21:03.511Z,7.75
2023-05-06T23:24:06.306Z,7.20
2023-05-06T23:27:08.628Z,7.72
2023-05-06T23:30:11.438Z,8.52
2023-05-06T23:33:13.906Z,7.18
2023-05-06T23:36:16.605Z,7.88
2023-05-06T23:39:19.087Z,8.23
2023-05-06T23:42:21.790Z,7.35
2023-05-06T23:45:26.072Z,7.75
2023-05-06T23:48:28.406Z,8.02
2023-05-06T23:51:32.099Z,7.25
2023-05-06T23:54:34.288Z,7.82
2023-05-06T23:57:36.657Z,7.72
